Flight Track Log - Related Links

Times and Time Zones

All times are in EDT time to prevent confusion due to time zone crossing. See the GLA63P flight status page for this flight to view local times or setup timezone preferences in your user account.

Time Position Orientation Groundspeed Altitude Reporting Facility
EDT Latitude Longitude Course Direction KTS MPH feet Rate Location/Type
Mon 08:15:25 AM 34.6553 -112.4661 343° North 133 153 7,400  Level Los Angeles Center
Mon 08:16:26 AM 34.7022 -112.4839 343° North 175 201 8,600 1,190 Climbing Los Angeles Center
Mon 08:17:26 AM 34.7567 -112.4783 North 185 213 9,800 1,300 Climbing Los Angeles Center
Mon 08:18:26 AM 34.8117 -112.4753 North 196 226 11,200 1,450 Climbing Los Angeles Center
Mon 08:19:26 AM 34.8697 -112.4714 North 207 238 12,700 1,438 Climbing Los Angeles Center
Mon 08:20:27 AM 34.9283 -112.4614 North 214 246 14,100 1,289 Climbing Los Angeles Center
Mon 08:21:27 AM 34.9872 -112.4575 North 215 247 15,300 1,200 Climbing Los Angeles Center
Mon 08:22:27 AM 35.0489 -112.4583 359° North 223 257 16,500 1,200 Climbing Los Angeles Center
Mon 08:23:27 AM 35.1114 -112.4556 North 227 261 17,700 1,100 Climbing Los Angeles Center
Mon 08:24:27 AM 35.1750 -112.4492 North 230 265 18,700 942 Climbing Los Angeles Center
Mon 08:25:28 AM 35.2397 -112.4356 10° North 237 273 19,600 893 Climbing Los Angeles Center
Mon 08:26:28 AM 35.3064 -112.4297 North 242 278 20,500 900 Climbing Los Angeles Center
Mon 08:27:28 AM 35.3733 -112.4264 North 243 280 21,400 700 Climbing Los Angeles Center
Mon 08:28:28 AM 35.4392 -112.4208 North 239 275 21,900 248 Climbing Los Angeles Center
Mon 08:29:29 AM 35.5086 -112.4178 North 248 285 21,900  Level Los Angeles Center
Mon 08:30:29 AM 35.5800 -112.4158 North 257 296 21,900  Level Los Angeles Center
Mon 08:31:29 AM 35.6611 -112.3711 24° Northeast 269 310 21,900  Level Los Angeles Center
Mon 08:32:30 AM 35.7267 -112.3286 28° Northeast 269 310 21,900  Level Los Angeles Center
Mon 08:33:30 AM 35.7900 -112.2792 32° Northeast 271 312 21,900  Level Los Angeles Center
Mon 08:34:30 AM 35.8497 -112.2228 37° Northeast 271 312 21,900  Level Los Angeles Center
Mon 08:35:30 AM 35.9094 -112.1689 36° Northeast 269 310 21,900  Level Los Angeles Center
Mon 08:36:31 AM 35.9728 -112.1197 32° Northeast 269 310 21,900  Level Los Angeles Center
Mon 08:37:31 AM 36.0364 -112.0736 30° Northeast 267 307 21,900  Level Los Angeles Center
Mon 08:38:31 AM 36.1036 -112.0358 24° Northeast 267 307 21,900  Level Los Angeles Center
Mon 08:39:32 AM 36.1719 -112.0008 22° Northeast 266 306 21,900  Level Los Angeles Center
Mon 08:40:32 AM 36.2350 -111.9531 31° Northeast 270 311 21,900  Level Los Angeles Center
Mon 08:41:32 AM 36.2992 -111.9033 32° Northeast 272 313 21,900  Level Los Angeles Center
Mon 08:42:32 AM 36.3642 -111.8550 31° Northeast 272 313 21,900  Level Los Angeles Center
Mon 08:42:51 AM 36.3886 -111.8378 30° Northeast 272 313 21,900 75 Level Denver Center
Mon 08:43:52 AM 36.4531 -111.7892 31° Northeast 271 312 22,000 49 Climbing Denver Center
Mon 08:44:53 AM 36.5158 -111.7353 35° Northeast 274 315 22,000  Level Denver Center
Mon 08:45:54 AM 36.5756 -111.6781 38° Northeast 272 313 22,000  Level Denver Center
Mon 08:46:55 AM 36.6369 -111.6219 36° Northeast 274 315 22,000  Level Denver Center
Mon 08:47:56 AM 36.6983 -111.5664 36° Northeast 274 315 22,000  Level Denver Center
Mon 08:48:56 AM 36.7611 -111.5103 36° Northeast 276 318 22,000  Level Denver Center
Mon 08:49:57 AM 36.8211 -111.4567 36° Northeast 272 313 22,000  Level Denver Center
Mon 08:50:58 AM 36.8831 -111.4022 35° Northeast 272 313 22,000  Level Denver Center
Mon 08:51:59 AM 36.9453 -111.3458 36° Northeast 274 315 22,000  Level Denver Center
Mon 08:53:00 AM 37.0214 -111.2789 35° Northeast 279 321 22,000  Level Denver Center
Mon 08:54:01 AM 37.0808 -111.2200 38° Northeast 275 316 22,000  Level Denver Center
Mon 08:55:02 AM 37.1433 -111.1603 37° Northeast 281 323 22,000  Level Denver Center
Mon 08:56:03 AM 37.2081 -111.1056 34° Northeast 282 325 22,000  Level Denver Center
Mon 08:57:16 AM 37.2711 -111.0478 36° Northeast 281 323 22,000  Level Denver Center
Mon 08:58:17 AM 37.3481 -110.9803 35° Northeast 282 325 22,000 49 Level Denver Center
Mon 08:59:18 AM 37.4108 -110.9253 35° Northeast 277 319 22,100  Climbing Denver Center
Mon 09:00:19 AM 37.4764 -110.8728 32° Northeast 278 320 22,000 -49 Descending Denver Center
Mon 09:01:20 AM 37.5406 -110.8244 31° Northeast 274 315 22,000  Level Denver Center
Mon 09:02:21 AM 37.6094 -110.7814 26° Northeast 276 318 22,000 49 Level Denver Center
Mon 09:03:22 AM 37.6731 -110.7367 29° Northeast 267 307 22,100 -246 Climbing Denver Center
Mon 09:04:23 AM 37.7500 -110.6792 31° Northeast 267 307 21,500 -689 Descending Denver Center
Mon 09:05:24 AM 37.8144 -110.6303 31° Northeast 270 311 20,700 -787 Descending Denver Center
Mon 09:06:25 AM 37.8753 -110.5767 35° Northeast 269 310 19,900 -787 Descending Denver Center
Mon 09:07:26 AM 37.9364 -110.5236 34° Northeast 268 308 19,100 -836 Descending Denver Center
Mon 09:08:27 AM 37.9981 -110.4694 35° Northeast 269 310 18,200 -689 Descending Denver Center
Mon 09:09:28 AM 38.0603 -110.4119 36° Northeast 274 315 17,700 -496 Descending Denver Center
Mon 09:10:28 AM 38.1164 -110.3536 39° Northeast 273 314 17,200 -496 Descending Denver Center
Mon 09:11:29 AM 38.1792 -110.2781 43° Northeast 276 318 16,700 -787 Descending Denver Center
Mon 09:12:30 AM 38.2356 -110.2150 41° Northeast 279 321 15,600 -1,082 Descending Denver Center
Mon 09:13:31 AM 38.2975 -110.1544 37° Northeast 287 330 14,500 -1,033 Descending Denver Center
Mon 09:14:32 AM 38.3725 -110.0947 32° Northeast 287 330 13,500 -1,082 Descending Denver Center
Mon 09:15:33 AM 38.4403 -110.0456 30° Northeast 288 331 12,300 -1,309 Descending Denver Center
Mon 09:16:22 AM 38.4972 -110.0053 29° Northeast 290 334 11,100 -1,469 Descending Denver Center

Login

Don't have an account? Register now (free) for customized features, flight alerts, and more!